Time;durP1;ratioP1;P1;durP2;ratioP2;P2;SDS_P1;SDS_P2;PMS_P1;PMS_P2;Temp;Humidity;BMP_temperature;BMP_pressure;BME280_temperature;BME280_humidity;BME280_pressure;Samples;Min_cycle;Max_cycle;Signal;HPM_P1;HPM_P2
2021/12/18 00:00:29;;;;;;;;;45.25;29.25;;;;;8.48;77.25;103753.19;5082765;27;45615;-71
2021/12/18 00:02:54;;;;;;;;;34.75;28.25;;;;;8.37;77.30;103736.16;5087208;27;45464;-70
2021/12/18 00:05:20;;;;;;;;;39.50;35.00;;;;;8.43;77.21;103757.44;5075490;27;45353;-70
2021/12/18 00:07:45;;;;;;;;;34.50;31.75;;;;;8.29;76.97;103727.19;5074034;28;45377;-70
2021/12/18 00:10:11;;;;;;;;;34.75;30.00;;;;;8.39;77.83;103750.31;5074278;27;45342;-70
2021/12/18 00:12:36;;;;;;;;;36.00;29.75;;;;;8.37;77.86;103757.28;5074057;27;45399;-71
2021/12/18 00:15:02;;;;;;;;;26.50;26.50;;;;;8.35;77.14;103757.25;5072991;27;46048;-72
2021/12/18 00:17:28;;;;;;;;;29.50;28.75;;;;;8.18;77.95;103730.47;5074669;28;45430;-72
2021/12/18 00:19:53;;;;;;;;;36.75;32.00;;;;;8.31;77.56;103754.50;5076681;27;45392;-72
2021/12/18 00:22:18;;;;;;;;;32.00;28.50;;;;;8.27;77.42;103748.25;5075627;27;45507;-72
2021/12/18 00:24:44;;;;;;;;;39.50;32.00;;;;;8.21;77.76;103745.50;5074206;27;45359;-72
2021/12/18 00:27:09;;;;;;;;;44.50;35.00;;;;;8.18;77.89;103741.03;5073469;27;45366;-72
2021/12/18 00:29:34;;;;;;;;;39.75;35.00;;;;;8.22;78.08;103755.19;5086633;27;45759;-72
2021/12/18 00:32:00;;;;;;;;;37.75;31.75;;;;;8.20;77.37;103746.31;5079023;27;45589;-72
2021/12/18 00:34:25;;;;;;;;;34.75;29.00;;;;;8.19;77.28;103755.09;5079055;27;45450;-72
2021/12/18 00:36:51;;;;;;;;;35.50;29.50;;;;;8.04;78.18;103737.16;5073863;27;45390;-72
2021/12/18 00:39:17;;;;;;;;;41.00;31.50;;;;;8.07;77.89;103736.34;5073937;27;45470;-72
2021/12/18 00:44:13;;;;;;;;;46.25;34.25;;;;;8.12;78.75;103753.19;5074748;27;45491;-72
2021/12/18 00:46:45;;;;;;;;;33.25;27.50;;;;;8.13;78.56;103755.84;5072297;28;45447;-72
2021/12/18 00:49:18;;;;;;;;;37.00;33.25;;;;;8.02;78.54;103732.69;5075044;27;45459;-72
2021/12/18 00:51:44;;;;;;;;;33.75;31.00;;;;;8.16;78.65;103755.03;5087074;27;45503;-72
2021/12/18 00:54:09;;;;;;;;;38.50;35.00;;;;;8.16;78.90;103753.28;5080581;27;45496;-72
2021/12/18 00:56:35;;;;;;;;;35.00;30.00;;;;;8.18;79.00;103758.59;5075401;27;45465;-72
2021/12/18 00:59:01;;;;;;;;;34.25;33.25;;;;;8.19;78.55;103761.25;5073477;27;45444;-72
2021/12/18 01:01:31;;;;;;;;;43.50;37.00;;;;;8.14;78.29;103754.97;5073421;27;45628;-72
2021/12/18 01:03:56;;;;;;;;;42.00;36.00;;;;;8.19;78.63;103761.25;5088766;27;45741;-72
2021/12/18 01:06:23;;;;;;;;;33.00;31.00;;;;;7.77;78.32;103678.50;5071217;28;45684;-72
2021/12/18 01:08:52;;;;;;;;;45.75;34.25;;;;;8.13;78.45;103742.66;5074581;27;45383;-72
2021/12/18 01:11:43;;;;;;;;;42.75;37.25;;;;;8.05;77.82;103738.94;5075702;27;45599;-72
2021/12/18 01:14:46;;;;;;;;;53.00;37.25;;;;;8.19;77.99;103766.53;5072495;27;46061;-72
2021/12/18 01:24:59;;;;;;;;;46.50;38.00;;;;;8.04;78.26;103750.34;5072403;27;45393;-72
2021/12/18 01:27:24;;;;;;;;;51.25;38.25;;;;;8.10;77.77;103758.41;5078610;27;45366;-72
2021/12/18 01:29:50;;;;;;;;;46.25;36.50;;;;;8.06;77.60;103758.28;5074533;27;45380;-72
2021/12/18 01:32:16;;;;;;;;;57.25;39.50;;;;;8.06;78.16;103753.94;5076062;27;45799;-72
2021/12/18 01:34:42;;;;;;;;;57.75;40.75;;;;;8.04;77.05;103758.25;5073819;27;46059;-72
2021/12/18 01:37:07;;;;;;;;;45.75;34.75;;;;;8.04;77.76;103763.53;5079225;27;45460;-72
2021/12/18 01:39:33;;;;;;;;;50.25;37.00;;;;;7.91;78.10;103746.53;5073313;27;45516;-72
2021/12/18 01:52:34;;;;;;;;;51.50;38.50;;;;;7.76;77.53;103746.13;5072569;28;45311;-73
2021/12/18 01:55:00;;;;;;;;;52.50;38.00;;;;;7.86;77.90;103768.34;5074045;27;46043;-73
2021/12/18 01:57:25;;;;;;;;;51.00;35.75;;;;;7.86;77.64;103778.91;5073158;27;45390;-73
2021/12/18 01:59:51;;;;;;;;;56.50;41.25;;;;;7.61;77.52;103741.34;5074162;27;45268;-74
2021/12/18 02:02:18;;;;;;;;;52.25;39.75;;;;;7.78;77.81;103781.34;5073003;27;45561;-72
2021/12/18 02:04:44;;;;;;;;;48.25;37.00;;;;;7.69;77.46;103775.81;5071091;27;45863;-72
2021/12/18 02:07:09;;;;;;;;;31.25;25.75;;;;;7.56;77.40;103758.81;5072619;27;45326;-72
2021/12/18 02:12:15;;;;;;;;;52.75;39.25;;;;;7.49;78.24;103751.56;5061599;27;45312;-73
2021/12/18 02:20:36;;;;;;;;;53.25;42.00;;;;;7.40;77.90;103754.84;5072402;27;45448;-72
2021/12/18 02:23:03;;;;;;;;;53.75;40.25;;;;;7.26;77.70;103732.50;5080780;27;45430;-72
2021/12/18 02:25:31;;;;;;;;;53.75;41.50;;;;;7.45;78.08;103776.97;5075682;27;46450;-73
2021/12/18 02:27:56;;;;;;;;;53.00;41.50;;;;;7.49;77.71;103783.19;5072226;28;45570;-72
2021/12/18 02:30:22;;;;;;;;;59.00;43.50;;;;;7.34;77.95;103751.16;5071248;28;45505;-72
2021/12/18 02:32:49;;;;;;;;;53.50;40.00;;;;;7.44;78.19;103767.28;5073808;27;46944;-72
2021/12/18 02:35:34;;;;;;;;;52.25;38.00;;;;;7.43;77.23;103772.50;5083247;27;45425;-73
2021/12/18 02:38:13;;;;;;;;;56.25;43.25;;;;;7.41;77.63;103774.19;5074377;27;45533;-72
2021/12/18 02:43:11;;;;;;;;;58.00;43.75;;;;;7.37;77.19;103773.22;5065904;28;45306;-72
2021/12/18 02:45:36;;;;;;;;;56.75;42.50;;;;;7.27;78.43;103761.53;5075456;27;46012;-73
2021/12/18 02:48:02;;;;;;;;;54.00;38.50;;;;;7.32;77.94;103774.81;5082572;27;45466;-72
2021/12/18 02:50:27;;;;;;;;;56.25;44.25;;;;;7.33;77.78;103778.38;5080008;27;45418;-72
2021/12/18 02:52:52;;;;;;;;;54.25;39.75;;;;;7.16;78.31;103746.28;5077787;27;45285;-71
2021/12/18 02:55:18;;;;;;;;;51.25;41.00;;;;;7.10;78.04;103738.22;5073736;27;48343;-71
2021/12/18 02:57:43;;;;;;;;;59.75;45.50;;;;;7.27;78.63;103777.34;5075559;28;45770;-72
2021/12/18 03:00:09;;;;;;;;;60.00;44.75;;;;;7.23;78.51;103770.19;5077585;27;45429;-72
2021/12/18 03:02:40;;;;;;;;;53.50;39.50;;;;;7.20;78.79;103771.84;5091921;27;45357;-72
2021/12/18 03:05:09;;;;;;;;;59.50;46.00;;;;;7.22;77.61;103773.69;5073708;28;46943;-72
2021/12/18 03:07:35;;;;;;;;;55.25;43.00;;;;;7.10;78.39;103751.38;5074504;28;45546;-72
2021/12/18 03:24:20;;;;;;;;;61.25;45.50;;;;;7.11;78.40;103763.69;4956544;28;45469;-72
2021/12/18 03:26:46;;;;;;;;;60.50;45.00;;;;;7.05;78.18;103749.50;4958409;28;45512;-72
2021/12/18 03:29:11;;;;;;;;;63.50;45.75;;;;;7.13;78.27;103755.00;4962307;28;45418;-72
2021/12/18 03:31:36;;;;;;;;;51.75;39.25;;;;;7.14;78.60;103756.75;4959166;28;45323;-71
2021/12/18 03:34:02;;;;;;;;;55.00;42.00;;;;;7.15;79.22;103763.84;4954744;28;45406;-71
2021/12/18 03:36:27;;;;;;;;;58.50;43.75;;;;;6.98;78.76;103712.44;4954234;28;46169;-71
2021/12/18 03:38:52;;;;;;;;;66.25;44.75;;;;;7.18;79.15;103749.88;4954593;28;45446;-71
2021/12/18 03:41:18;;;;;;;;;57.00;46.25;;;;;7.16;79.48;103736.63;4955695;28;45467;-71
2021/12/18 03:43:43;;;;;;;;;61.25;47.50;;;;;7.21;79.16;103747.31;4957634;28;45504;-71
2021/12/18 03:46:08;;;;;;;;;63.25;45.50;;;;;7.21;78.85;103749.94;4947452;28;47054;-71
2021/12/18 03:48:34;;;;;;;;;64.75;44.25;;;;;7.23;79.70;103748.22;4962845;28;45390;-71
2021/12/18 03:50:59;;;;;;;;;57.25;44.25;;;;;7.05;79.59;103717.00;4966694;28;45427;-71
2021/12/18 03:53:24;;;;;;;;;64.00;47.75;;;;;7.20;79.35;103733.22;4985441;28;45776;-72
2021/12/18 03:55:50;;;;;;;;;56.50;45.00;;;;;7.10;79.19;103712.75;5008938;28;46056;-71
2021/12/18 03:58:15;;;;;;;;;64.75;44.75;;;;;7.23;79.08;103740.31;5051356;28;45379;-71
2021/12/18 04:00:40;;;;;;;;;65.25;43.25;;;;;7.35;78.64;103745.91;5074585;27;45537;-71
2021/12/18 04:03:06;;;;;;;;;64.50;47.25;;;;;7.37;79.49;103740.72;5079657;27;45494;-72
2021/12/18 04:05:32;;;;;;;;;61.25;48.50;;;;;7.42;78.32;103749.63;5075827;28;46090;-72
2021/12/18 04:08:08;;;;;;;;;62.50;46.00;;;;;7.45;79.25;103749.72;5074103;27;45548;-72
2021/12/18 04:10:35;;;;;;;;;72.00;51.25;;;;;7.39;79.16;103734.63;5076024;27;45311;-72
2021/12/18 04:13:01;;;;;;;;;71.50;50.50;;;;;7.48;78.75;103752.44;5074250;27;45487;-72
2021/12/18 04:15:26;;;;;;;;;63.25;49.00;;;;;7.56;78.53;103755.25;5079569;27;45566;-72
2021/12/18 04:17:52;;;;;;;;;69.50;50.50;;;;;7.51;77.74;103752.50;5076271;27;45377;-72
2021/12/18 04:20:17;;;;;;;;;60.25;45.00;;;;;7.51;77.76;103755.16;5074281;27;45425;-72
2021/12/18 04:22:42;;;;;;;;;68.75;48.75;;;;;7.44;78.30;103735.66;5075000;27;45383;-72
2021/12/18 04:25:08;;;;;;;;;62.25;49.00;;;;;7.57;77.48;103750.03;5073727;28;46186;-72
2021/12/18 04:27:34;;;;;;;;;69.50;47.75;;;;;7.57;78.38;103746.53;5076374;27;45543;-72
2021/12/18 04:29:59;;;;;;;;;67.75;48.50;;;;;7.58;77.75;103751.81;5074374;27;45374;-72
2021/12/18 04:32:24;;;;;;;;;70.50;51.00;;;;;7.47;78.24;103726.91;5080193;27;45422;-72
2021/12/18 04:34:50;;;;;;;;;64.00;46.50;;;;;7.58;78.33;103746.53;5085121;27;46466;-72
2021/12/18 04:37:15;;;;;;;;;64.75;46.50;;;;;7.68;77.81;103752.97;5081540;27;45541;-72
2021/12/18 04:39:41;;;;;;;;;69.50;49.25;;;;;7.69;77.89;103742.44;5074378;27;45487;-72
2021/12/18 04:42:06;;;;;;;;;70.50;50.00;;;;;7.65;77.29;103735.31;5074043;28;45689;-72
2021/12/18 04:44:31;;;;;;;;;69.00;50.75;;;;;7.71;78.55;103740.75;5077505;27;46064;-72
2021/12/18 04:46:57;;;;;;;;;69.00;49.75;;;;;7.63;77.43;103725.59;5074598;27;45411;-73
2021/12/18 04:49:22;;;;;;;;;67.00;50.25;;;;;7.78;78.82;103740.91;5091366;27;45539;-72
2021/12/18 04:51:48;;;;;;;;;67.50;45.00;;;;;7.41;77.40;103668.78;5077673;27;45653;-73
2021/12/18 04:54:13;;;;;;;;;59.50;46.75;;;;;7.76;77.67;103735.56;5075168;27;45275;-73
2021/12/18 04:56:38;;;;;;;;;68.00;51.25;;;;;7.74;76.90;103725.00;5076820;27;45481;-73
2021/12/18 04:59:05;;;;;;;;;67.75;49.25;;;;;7.78;77.39;103733.88;5079310;27;45684;-73
2021/12/18 05:01:36;;;;;;;;;69.25;49.50;;;;;7.83;77.31;103734.00;5077598;27;45791;-73
2021/12/18 05:04:03;;;;;;;;;63.00;46.00;;;;;7.86;77.83;103737.59;5076248;27;48518;-73
2021/12/18 05:06:31;;;;;;;;;62.50;47.25;;;;;7.90;77.74;103738.56;5077289;27;45742;-71
2021/12/18 05:08:56;;;;;;;;;67.00;49.25;;;;;7.90;77.79;103734.19;5077805;27;46296;-71
2021/12/18 05:11:22;;;;;;;;;69.25;45.75;;;;;7.73;76.95;103707.41;5079322;27;45721;-71
2021/12/18 05:13:47;;;;;;;;;70.75;50.00;;;;;7.91;76.78;103750.88;5075513;27;47127;-71
2021/12/18 05:16:12;;;;;;;;;65.25;46.50;;;;;7.92;78.01;103747.41;5078009;27;45701;-71
2021/12/18 05:18:38;;;;;;;;;64.75;46.00;;;;;7.93;78.36;103746.56;5076346;27;45570;-71
2021/12/18 05:21:03;;;;;;;;;62.00;46.25;;;;;7.93;77.48;103746.56;5085189;27;45446;-71
2021/12/18 05:23:28;;;;;;;;;63.75;48.25;;;;;7.85;77.13;103730.56;5078637;27;45660;-71
2021/12/18 05:25:54;;;;;;;;;61.50;45.75;;;;;7.86;77.93;103731.44;5076112;27;45553;-71
2021/12/18 05:28:19;;;;;;;;;62.75;48.25;;;;;7.97;78.58;103753.66;5077330;27;45544;-71
2021/12/18 05:30:44;;;;;;;;;60.00;45.00;;;;;7.97;76.83;103741.41;5077716;27;45598;-72
2021/12/18 05:33:11;;;;;;;;;66.75;51.50;;;;;7.96;77.16;103741.34;5076733;27;45507;-73
2021/12/18 05:35:37;;;;;;;;;65.25;49.50;;;;;7.87;76.42;103736.75;5078385;27;45514;-73
2021/12/18 05:38:05;;;;;;;;;69.00;49.00;;;;;7.56;76.41;103679.75;5078126;27;45921;-72
2021/12/18 05:40:32;;;;;;;;;69.00;50.00;;;;;7.87;77.19;103743.75;5084060;27;45731;-72
2021/12/18 05:42:57;;;;;;;;;59.50;45.50;;;;;7.87;76.96;103743.75;5084243;27;48285;-71
2021/12/18 05:45:23;;;;;;;;;62.50;47.50;;;;;7.73;76.71;103724.94;5076586;27;46239;-71
2021/12/18 05:47:48;;;;;;;;;62.00;44.50;;;;;7.85;76.73;103732.28;5078137;27;45610;-71
2021/12/18 05:50:18;;;;;;;;;62.50;46.00;;;;;7.95;77.09;103747.50;5078370;27;45884;-71
2021/12/18 05:52:45;;;;;;;;;68.50;47.75;;;;;7.86;77.53;103747.28;5077966;27;45689;-71
2021/12/18 05:55:11;;;;;;;;;65.00;47.75;;;;;7.97;77.37;103756.31;5078189;27;45441;-71
2021/12/18 05:57:36;;;;;;;;;69.00;47.50;;;;;7.95;76.47;103758.94;5077819;27;45637;-71
2021/12/18 06:00:04;;;;;;;;;67.00;47.00;;;;;7.96;77.64;103771.25;5078048;27;45632;-71
2021/12/18 06:02:30;;;;;;;;;55.25;45.75;;;;;7.92;77.57;103753.56;5078658;27;47467;-71
2021/12/18 06:04:55;;;;;;;;;56.50;38.00;;;;;7.88;77.03;103742.91;5076181;27;45639;-71
2021/12/18 06:07:30;;;;;;;;;66.50;47.75;;;;;7.86;76.74;103747.28;5077849;27;46995;-71
2021/12/18 06:09:57;;;;;;;;;60.50;45.50;;;;;7.86;77.66;103742.88;5078958;27;45601;-71
2021/12/18 06:12:22;;;;;;;;;67.75;50.75;;;;;7.91;77.03;103748.25;5078981;27;45672;-71
2021/12/18 06:14:48;;;;;;;;;61.00;44.75;;;;;7.92;77.23;103750.06;5082384;27;45561;-71
2021/12/18 06:17:14;;;;;;;;;55.75;42.50;;;;;7.87;77.86;103731.47;5079561;27;45585;-71
2021/12/18 06:19:39;;;;;;;;;55.75;43.50;;;;;7.92;77.36;103747.41;5079276;27;46767;-71
2021/12/18 06:22:05;;;;;;;;;56.00;42.00;;;;;7.96;76.61;103754.53;5087354;27;47300;-71
2021/12/18 06:24:30;;;;;;;;;59.75;44.75;;;;;7.97;77.11;103757.22;5080870;27;45535;-71
2021/12/18 06:26:56;;;;;;;;;63.50;45.75;;;;;7.91;76.85;103741.25;5081476;27;45972;-71
2021/12/18 06:29:22;;;;;;;;;56.75;41.50;;;;;8.00;77.89;103751.16;5082298;27;45605;-71
2021/12/18 06:31:47;;;;;;;;;57.50;43.75;;;;;8.00;77.38;103761.69;5096605;27;47343;-71
2021/12/18 06:34:13;;;;;;;;;43.75;37.00;;;;;8.00;76.81;103764.31;5079702;27;45595;-72
2021/12/18 06:36:39;;;;;;;;;61.25;45.50;;;;;7.84;76.85;103738.41;5081173;27;46012;-72
2021/12/18 06:39:05;;;;;;;;;61.50;47.50;;;;;7.94;76.89;103751.88;5080723;27;45635;-71
2021/12/18 06:41:30;;;;;;;;;56.75;42.00;;;;;7.85;77.91;103737.56;5082368;27;46113;-72
2021/12/18 06:43:56;;;;;;;;;55.00;44.25;;;;;7.88;77.17;103735.00;5073779;27;45896;-71
2021/12/18 06:46:21;;;;;;;;;51.25;41.50;;;;;7.92;77.55;103752.69;5071444;27;46642;-72
2021/12/18 06:48:47;;;;;;;;;57.50;40.75;;;;;7.98;77.08;103763.38;5070734;28;45483;-72
2021/12/18 06:51:12;;;;;;;;;59.25;42.00;;;;;7.90;77.38;103754.38;5070454;28;46046;-72
2021/12/18 06:53:37;;;;;;;;;48.25;38.25;;;;;7.98;76.91;103768.66;5072440;27;46092;-72
2021/12/18 06:56:06;;;;;;;;;57.25;41.00;;;;;7.86;77.27;103747.28;5071160;27;45473;-71
2021/12/18 06:58:31;;;;;;;;;52.25;38.75;;;;;7.59;77.93;103700.91;5069834;28;45669;-71
2021/12/18 07:00:56;;;;;;;;;45.00;38.00;;;;;7.94;77.51;103751.88;5069593;28;47233;-71
2021/12/18 07:03:22;;;;;;;;;49.50;37.50;;;;;8.00;77.14;103761.69;5070761;28;45371;-71
2021/12/18 07:05:48;;;;;;;;;45.00;37.50;;;;;8.07;77.96;103765.38;5070148;28;45633;-70
2021/12/18 07:08:14;;;;;;;;;42.00;35.75;;;;;8.06;77.10;103760.91;5070927;28;46682;-71
2021/12/18 07:10:39;;;;;;;;;50.25;38.00;;;;;7.97;76.78;103759.88;5069977;27;46098;-72
2021/12/18 07:13:04;;;;;;;;;45.75;37.25;;;;;7.91;76.95;103754.44;5069456;27;45477;-71
2021/12/18 07:15:30;;;;;;;;;37.00;33.75;;;;;7.93;76.84;103750.06;5086332;27;46676;-71
2021/12/18 07:17:55;;;;;;;;;45.75;38.00;;;;;7.97;76.59;103764.22;5071316;27;45716;-71
2021/12/18 07:20:21;;;;;;;;;55.25;39.75;;;;;8.06;77.54;103772.38;5087234;27;47195;-71
2021/12/18 07:22:46;;;;;;;;;48.25;38.00;;;;;7.90;77.17;103749.13;5068217;28;45823;-70
2021/12/18 07:25:12;;;;;;;;;56.75;40.75;;;;;8.10;76.95;103779.50;5070566;28;45645;-70
2021/12/18 07:27:37;;;;;;;;;46.50;37.75;;;;;8.10;77.14;103779.50;5069812;28;45417;-70
2021/12/18 07:30:04;;;;;;;;;55.25;39.25;;;;;8.09;76.77;103783.00;5073775;28;45453;-71
2021/12/18 07:32:29;;;;;;;;;50.75;39.75;;;;;8.08;76.87;103778.56;5076867;27;45500;-71
2021/12/18 07:34:56;;;;;;;;;51.25;37.00;;;;;7.96;76.03;103767.72;5074452;27;45451;-70
2021/12/18 07:37:24;;;;;;;;;52.50;40.50;;;;;8.05;76.17;103791.69;5069764;28;45358;-70
2021/12/18 07:39:50;;;;;;;;;99.00;83.00;;;;;8.03;77.96;103782.88;5061568;28;45422;-70
2021/12/18 07:42:15;;;;;;;;;72.33;52.33;;;;;8.00;77.02;103766.03;5066336;28;45482;-70
2021/12/18 07:44:42;;;;;;;;;51.75;38.00;;;;;8.13;76.13;103791.88;5077629;27;45665;-69
2021/12/18 07:47:07;;;;;;;;;53.25;39.00;;;;;7.91;76.13;103756.16;5073558;27;45489;-69
2021/12/18 07:49:33;;;;;;;;;52.00;38.50;;;;;8.09;76.55;103788.28;5073890;27;46746;-70
2021/12/18 07:52:02;;;;;;;;;47.50;37.25;;;;;8.08;76.50;103791.75;5074594;27;45538;-70
2021/12/18 07:54:27;;;;;;;;;50.50;39.25;;;;;8.07;76.45;103783.81;5073136;28;45446;-70
2021/12/18 07:56:53;;;;;;;;;50.25;42.00;;;;;8.15;77.02;103791.06;5075327;27;45393;-69
2021/12/18 07:59:18;;;;;;;;;69.75;48.75;;;;;8.16;77.66;103784.94;5075087;28;46094;-70
2021/12/18 08:01:44;;;;;;;;;82.00;60.67;;;;;8.22;77.13;103793.88;5081213;27;45820;-72
2021/12/18 08:04:09;;;;;;;;;50.75;38.75;;;;;8.10;76.22;103765.44;5074265;27;45473;-70
2021/12/18 08:06:34;;;;;;;;;57.25;44.75;;;;;8.26;76.13;103809.78;5074369;28;45458;-70
2021/12/18 08:09:00;;;;;;;;;55.75;44.00;;;;;8.25;76.46;103801.84;5072668;28;47210;-70
2021/12/18 08:11:25;;;;;;;;;58.25;46.75;;;;;8.19;75.73;103803.47;5075454;28;45363;-70
2021/12/18 08:13:50;;;;;;;;;61.00;43.00;;;;;8.09;76.54;103777.75;5073844;28;45366;-70
2021/12/18 08:16:16;;;;;;;;;56.00;40.75;;;;;8.11;76.24;103780.41;5071114;28;45468;-69
2021/12/18 08:18:41;;;;;;;;;57.75;39.75;;;;;8.20;76.66;103794.69;5073739;28;46010;-70
2021/12/18 08:21:06;;;;;;;;;49.00;38.00;;;;;8.25;75.83;103804.50;5069768;28;45511;-72
2021/12/18 08:23:32;;;;;;;;;54.50;43.00;;;;;8.20;75.87;103796.44;5075822;28;46073;-70
2021/12/18 08:25:57;;;;;;;;;62.00;44.25;;;;;8.15;75.58;103795.47;5073567;28;45468;-70
2021/12/18 08:28:24;;;;;;;;;62.75;43.00;;;;;8.13;76.13;103805.06;5073415;28;46588;-71
2021/12/18 08:30:49;;;;;;;;;54.50;38.25;;;;;8.01;76.66;103783.69;5073047;28;45444;-70
2021/12/18 08:33:15;;;;;;;;;52.00;39.00;;;;;8.09;76.61;103800.56;5073151;28;45275;-71
2021/12/18 08:35:40;;;;;;;;;48.75;37.25;;;;;8.03;77.02;103776.66;5073392;28;45383;-70
2021/12/18 08:38:06;;;;;;;;;61.00;45.25;;;;;8.00;76.37;103772.25;5073269;28;46085;-70
2021/12/18 08:40:34;;;;;;;;;60.50;44.75;;;;;8.09;76.24;103785.66;5073063;28;45551;-70
2021/12/18 08:42:59;;;;;;;;;59.75;42.25;;;;;8.19;76.73;103805.22;5074118;28;45431;-70
2021/12/18 08:45:25;;;;;;;;;53.50;42.50;;;;;8.16;77.33;103795.50;5073687;28;45332;-70
2021/12/18 08:47:51;;;;;;;;;53.75;42.50;;;;;8.17;76.23;103799.91;5074456;28;45415;-71
2021/12/18 08:50:17;;;;;;;;;55.50;43.50;;;;;8.17;76.85;103799.00;5073629;28;45616;-71
2021/12/18 08:52:44;;;;;;;;;58.50;42.75;;;;;8.09;76.79;103783.00;5072473;28;45523;-71
2021/12/18 08:55:10;;;;;;;;;58.75;42.75;;;;;7.97;76.71;103769.50;5072785;28;45388;-70
2021/12/18 08:57:35;;;;;;;;;50.50;38.25;;;;;8.14;77.16;103806.84;5073308;28;45386;-71
2021/12/18 09:00:01;;;;;;;;;58.25;42.00;;;;;8.10;76.91;103794.44;5054932;28;45577;-71
2021/12/18 09:02:27;;;;;;;;;55.50;41.25;;;;;8.11;76.81;103789.19;5073348;28;45380;-70
2021/12/18 09:04:52;;;;;;;;;61.50;43.00;;;;;8.06;77.56;103777.66;5073088;28;45535;-72
2021/12/18 09:07:17;;;;;;;;;59.25;43.50;;;;;8.19;76.87;103776.22;5067817;28;47311;-72
2021/12/18 09:09:43;;;;;;;;;64.50;48.75;;;;;8.35;77.05;103796.84;5072777;28;45364;-72
2021/12/18 09:12:10;;;;;;;;;67.25;47.50;;;;;8.31;76.91;103781.78;5072916;28;45452;-73
2021/12/18 09:14:36;;;;;;;;;55.00;42.00;;;;;8.36;76.54;103789.81;5073971;28;45288;-73
2021/12/18 09:17:01;;;;;;;;;63.00;46.75;;;;;8.26;76.29;103771.97;5051491;28;46784;-72
2021/12/18 09:19:27;;;;;;;;;55.50;40.75;;;;;8.26;76.70;103774.59;5046519;28;45387;-72
2021/12/18 09:21:52;;;;;;;;;62.00;42.50;;;;;8.29;76.61;103783.47;5060475;28;45485;-72
2021/12/18 09:24:20;;;;;;;;;46.50;36.75;;;;;8.23;76.65;103780.69;5070232;28;45654;-75
2021/12/18 09:26:46;;;;;;;;;58.25;42.75;;;;;8.29;77.02;103785.22;5075113;28;45481;-73
2021/12/18 09:29:11;;;;;;;;;54.50;41.50;;;;;8.31;76.74;103786.16;5073088;28;45529;-73
2021/12/18 09:31:37;;;;;;;;;59.25;40.75;;;;;8.10;76.67;103758.41;5073463;28;45475;-73
2021/12/18 09:34:02;;;;;;;;;52.50;41.00;;;;;8.17;77.48;103773.50;5072911;28;45673;-73
2021/12/18 09:36:27;;;;;;;;;67.00;42.00;;;;;8.27;76.36;103787.84;5072591;28;45612;-74
2021/12/18 09:38:53;;;;;;;;;46.75;36.75;;;;;8.25;76.43;103793.94;5074053;28;45398;-72
2021/12/18 09:41:18;;;;;;;;;56.75;42.00;;;;;8.26;76.47;103799.22;5072392;28;45562;-73
2021/12/18 09:43:44;;;;;;;;;51.50;38.75;;;;;8.08;76.46;103775.06;5069547;27;45431;-73
2021/12/18 09:46:12;;;;;;;;;45.00;36.00;;;;;8.23;77.02;103806.19;5073747;28;46161;-73
2021/12/18 09:48:39;;;;;;;;;49.25;38.00;;;;;7.77;77.03;103712.75;5076601;28;45511;-73
2021/12/18 09:51:11;;;;;;;;;48.50;36.25;;;;;8.24;76.83;103803.59;5076927;28;45249;-72
2021/12/18 09:53:36;;;;;;;;;54.25;37.75;;;;;8.20;77.76;103797.34;5077142;28;45319;-72
2021/12/18 09:56:04;;;;;;;;;67.50;48.00;;;;;8.23;78.87;103785.97;5075694;27;45476;-71
2021/12/18 09:58:30;;;;;;;;;66.00;49.25;;;;;8.28;77.64;103778.19;5067974;28;45556;-72
2021/12/18 10:00:55;;;;;;;;;45.25;36.00;;;;;8.57;76.43;103807.94;5076719;27;45609;-71
2021/12/18 10:03:21;;;;;;;;;47.75;37.25;;;;;8.54;76.35;103803.47;5057707;28;45544;-71
2021/12/18 10:05:47;;;;;;;;;39.00;33.25;;;;;8.57;76.14;103800.00;5077593;27;46026;-71
2021/12/18 10:08:12;;;;;;;;;43.75;34.50;;;;;8.56;76.69;103808.75;5056941;28;45542;-72
2021/12/18 10:10:57;;;;;;;;;46.75;37.75;;;;;8.44;76.39;103790.88;5076091;27;45502;-72
2021/12/18 10:13:23;;;;;;;;;45.50;34.75;;;;;8.47;76.80;103787.44;5077199;27;45499;-72
2021/12/18 10:16:08;;;;;;;;;52.00;39.00;;;;;8.53;76.50;103813.97;5075369;28;46434;-72
2021/12/18 10:18:34;;;;;;;;;43.25;35.75;;;;;8.49;76.09;103805.09;5075998;27;45431;-72
2021/12/18 10:21:12;;;;;;;;;43.75;35.50;;;;;8.48;76.79;103803.31;5076390;28;45390;-72
2021/12/18 10:23:40;;;;;;;;;46.25;34.25;;;;;8.49;76.66;103805.09;5076757;28;45487;-72
2021/12/18 10:26:06;;;;;;;;;51.75;36.75;;;;;8.49;76.64;103793.66;5075878;28;46080;-71
2021/12/18 10:28:46;;;;;;;;;39.50;30.00;;;;;8.46;76.61;103802.38;5075585;27;45475;-71
2021/12/18 10:31:11;;;;;;;;;46.25;36.75;;;;;8.43;76.27;103790.88;5075832;27;45532;-72
2021/12/18 10:33:37;;;;;;;;;43.25;35.75;;;;;8.41;77.03;103790.81;5075668;28;45447;-72
2021/12/18 10:36:03;;;;;;;;;55.00;38.00;;;;;8.46;76.42;103783.91;5075140;27;46087;-71
2021/12/18 10:38:46;;;;;;;;;41.25;32.25;;;;;8.51;76.73;103795.47;5077744;27;45374;-71
2021/12/18 10:41:29;;;;;;;;;49.75;37.00;;;;;8.52;76.86;103791.97;5074526;28;45345;-71
2021/12/18 10:44:07;;;;;;;;;49.00;36.25;;;;;8.55;77.13;103789.41;5075401;28;45412;-71
2021/12/18 10:46:34;;;;;;;;;46.75;36.00;;;;;8.54;77.27;103792.91;5084552;27;45644;-71
2021/12/18 10:49:06;;;;;;;;;53.00;37.25;;;;;8.47;76.94;103782.16;5075410;28;45652;-72
2021/12/18 10:51:33;;;;;;;;;52.00;35.00;;;;;8.48;76.63;103786.59;5075121;28;45468;-72
2021/12/18 10:54:07;;;;;;;;;43.75;36.50;;;;;8.55;77.26;103796.44;5076087;28;45474;-72
2021/12/18 10:56:42;;;;;;;;;53.50;41.75;;;;;8.52;77.05;103778.78;5076001;27;45516;-72
2021/12/18 10:59:31;;;;;;;;;46.00;35.00;;;;;8.59;76.88;103791.28;5072837;27;45503;-71
2021/12/18 11:02:02;;;;;;;;;45.25;37.25;;;;;8.43;77.54;103768.00;5075178;28;45474;-72
2021/12/18 11:04:38;;;;;;;;;43.00;33.75;;;;;8.61;77.20;103791.28;5075218;28;45430;-72
2021/12/18 11:07:27;;;;;;;;;43.00;36.00;;;;;8.61;76.66;103792.16;5074514;28;45358;-71
2021/12/18 11:10:18;;;;;;;;;45.00;34.75;;;;;8.54;77.13;103777.06;5075071;28;45457;-71
2021/12/18 11:15:28;;;;;;;;;49.25;36.00;;;;;8.54;77.15;103777.06;5060946;28;45606;-71
2021/12/18 11:17:53;;;;;;;;;52.50;39.25;;;;;8.55;76.86;103777.94;5076242;28;46304;-71
2021/12/18 11:20:19;;;;;;;;;51.50;38.25;;;;;8.55;77.45;103778.84;5075299;28;45633;-71
2021/12/18 11:22:44;;;;;;;;;54.75;39.25;;;;;8.60;77.33;103777.19;5056712;28;45447;-71
2021/12/18 11:25:11;;;;;;;;;57.50;41.50;;;;;8.64;77.72;103778.16;5069239;28;45350;-71
2021/12/18 11:27:38;;;;;;;;;45.50;36.50;;;;;8.50;77.64;103742.63;5074736;27;45341;-71
2021/12/18 11:30:13;;;;;;;;;57.75;38.50;;;;;8.71;77.32;103764.25;5075204;28;45363;-71
2021/12/18 11:32:54;;;;;;;;;45.25;34.50;;;;;8.74;77.58;103774.88;5076813;28;45499;-71
2021/12/18 11:35:21;;;;;;;;;45.00;34.50;;;;;8.72;77.31;103758.09;5075364;28;45457;-71
2021/12/18 11:38:03;;;;;;;;;47.50;34.25;;;;;8.75;76.96;103766.09;5072973;28;46185;-72
2021/12/18 11:40:35;;;;;;;;;51.00;37.75;;;;;8.76;76.94;103757.28;5074718;28;45480;-71
2021/12/18 11:43:06;;;;;;;;;47.25;34.25;;;;;8.68;77.36;103748.34;5068933;28;45720;-71
2021/12/18 11:45:35;;;;;;;;;49.75;37.00;;;;;8.76;77.35;103759.03;5075116;28;45388;-71
2021/12/18 11:48:02;;;;;;;;;55.00;37.75;;;;;8.58;77.94;103726.09;5072782;28;48162;-71
2021/12/18 11:50:32;;;;;;;;;41.50;37.00;;;;;8.79;77.31;103765.28;5074241;28;45585;-71
2021/12/18 11:53:06;;;;;;;;;54.00;37.25;;;;;8.81;77.58;103749.47;5074617;28;45433;-72
2021/12/18 11:55:56;;;;;;;;;44.25;32.50;;;;;8.63;77.32;103728.84;5055735;28;45491;-72
2021/12/18 11:58:30;;;;;;;;;43.75;33.25;;;;;8.81;77.92;103739.81;5074045;28;45655;-72
2021/12/18 12:01:05;;;;;;;;;41.00;29.25;;;;;8.71;77.97;103726.41;5074021;28;45451;-72
2021/12/18 12:03:56;;;;;;;;;41.75;33.00;;;;;8.71;77.36;103726.41;5073846;28;45388;-71
2021/12/18 12:06:33;;;;;;;;;42.25;33.75;;;;;8.80;77.67;103727.47;5049464;28;45345;-72